sensor_id;sensor_type;location;lat;lon;timestamp;pressure;altitude;pressure_sealevel;temperature;humidity
21102;BME280;10709;49.006;12.100;2023-02-28T00:00:11;48644.16;;;-146.00;70.10
21102;BME280;10709;49.006;12.100;2023-02-28T00:02:39;48648.09;;;-146.00;71.04
21102;BME280;10709;49.006;12.100;2023-02-28T00:05:07;48644.16;;;-146.00;70.44
21102;BME280;10709;49.006;12.100;2023-02-28T00:07:35;48646.13;;;-146.00;70.59
21102;BME280;10709;49.006;12.100;2023-02-28T00:10:02;48659.84;;;-146.00;70.21
21102;BME280;10709;49.006;12.100;2023-02-28T00:12:29;48652.00;;;-146.00;70.15
21102;BME280;10709;49.006;12.100;2023-02-28T00:14:56;48634.38;;;-146.00;70.24
21102;BME280;10709;49.006;12.100;2023-02-28T00:17:22;48648.09;;;-146.00;70.27
21102;BME280;10709;49.006;12.100;2023-02-28T00:19:50;48667.69;;;-146.00;70.15
21102;BME280;10709;49.006;12.100;2023-02-28T00:22:19;48628.50;;;-146.00;70.08
21102;BME280;10709;49.006;12.100;2023-02-28T00:24:46;48620.66;;;-146.00;70.87
21102;BME280;10709;49.006;12.100;2023-02-28T00:27:14;48655.94;;;-146.00;70.45
21102;BME280;10709;49.006;12.100;2023-02-28T00:29:40;48652.00;;;-146.00;69.96
21102;BME280;10709;49.006;12.100;2023-02-28T00:32:07;48669.63;;;-146.00;70.21
21102;BME280;10709;49.006;12.100;2023-02-28T00:34:34;48646.13;;;-146.00;70.13
21102;BME280;10709;49.006;12.100;2023-02-28T00:37:05;48648.09;;;-146.00;69.97
21102;BME280;10709;49.006;12.100;2023-02-28T00:39:36;48638.28;;;-146.00;70.11
21102;BME280;10709;49.006;12.100;2023-02-28T00:42:03;48659.84;;;-146.00;69.84
21102;BME280;10709;49.006;12.100;2023-02-28T00:44:30;48653.97;;;-146.00;70.00
21102;BME280;10709;49.006;12.100;2023-02-28T00:46:58;48652.00;;;-146.00;70.58
21102;BME280;10709;49.006;12.100;2023-02-28T00:49:26;48648.09;;;-146.00;70.70
21102;BME280;10709;49.006;12.100;2023-02-28T00:51:54;48673.56;;;-146.00;70.54
21102;BME280;10709;49.006;12.100;2023-02-28T00:54:22;48644.16;;;-146.00;71.35
21102;BME280;10709;49.006;12.100;2023-02-28T00:56:49;48648.09;;;-146.00;71.43
21102;BME280;10709;49.006;12.100;2023-02-28T00:59:17;48648.09;;;-146.00;71.10
21102;BME280;10709;49.006;12.100;2023-02-28T01:01:45;48628.50;;;-146.00;71.97
21102;BME280;10709;49.006;12.100;2023-02-28T01:04:13;48652.00;;;-146.00;72.20
21102;BME280;10709;49.006;12.100;2023-02-28T01:06:40;48648.09;;;-146.00;71.81
21102;BME280;10709;49.006;12.100;2023-02-28T01:09:07;48640.25;;;-146.00;71.69
21102;BME280;10709;49.006;12.100;2023-02-28T01:11:34;48634.38;;;-146.00;72.08
21102;BME280;10709;49.006;12.100;2023-02-28T01:14:02;48638.28;;;-146.00;72.21
21102;BME280;10709;49.006;12.100;2023-02-28T01:16:28;48644.16;;;-146.00;72.05
21102;BME280;10709;49.006;12.100;2023-02-28T01:18:55;48663.75;;;-146.00;72.35
21102;BME280;10709;49.006;12.100;2023-02-28T01:21:22;48640.25;;;-146.00;72.51
21102;BME280;10709;49.006;12.100;2023-02-28T01:23:49;48652.00;;;-146.00;72.54
21102;BME280;10709;49.006;12.100;2023-02-28T01:26:20;48655.94;;;-146.00;72.71
21102;BME280;10709;49.006;12.100;2023-02-28T01:28:48;48652.00;;;-146.00;72.67
21102;BME280;10709;49.006;12.100;2023-02-28T01:31:16;48655.94;;;-146.00;72.84
21102;BME280;10709;49.006;12.100;2023-02-28T01:33:44;48659.84;;;-146.00;72.18
21102;BME280;10709;49.006;12.100;2023-02-28T01:38:42;48648.09;;;-146.00;72.28
21102;BME280;10709;49.006;12.100;2023-02-28T01:46:14;48648.09;;;-146.00;73.16
21102;BME280;10709;49.006;12.100;2023-02-28T01:48:45;48646.13;;;-146.00;73.93
21102;BME280;10709;49.006;12.100;2023-02-28T01:51:22;48655.94;;;-146.00;73.25
21102;BME280;10709;49.006;12.100;2023-02-28T01:53:53;48632.41;;;-146.00;73.20
21102;BME280;10709;49.006;12.100;2023-02-28T01:56:26;48659.84;;;-146.00;73.57
21102;BME280;10709;49.006;12.100;2023-02-28T01:58:54;48644.16;;;-146.00;73.42
21102;BME280;10709;49.006;12.100;2023-02-28T02:01:22;48657.88;;;-146.00;73.20
21102;BME280;10709;49.006;12.100;2023-02-28T02:03:57;48632.41;;;-146.00;73.41
21102;BME280;10709;49.006;12.100;2023-02-28T02:06:29;48636.34;;;-146.00;73.70
21102;BME280;10709;49.006;12.100;2023-02-28T02:08:57;48640.25;;;-146.00;73.60
21102;BME280;10709;49.006;12.100;2023-02-28T02:11:24;48646.13;;;-146.00;73.61
21102;BME280;10709;49.006;12.100;2023-02-28T02:13:59;48640.25;;;-146.00;73.27
21102;BME280;10709;49.006;12.100;2023-02-28T02:25:27;48652.00;;;-146.00;74.01
21102;BME280;10709;49.006;12.100;2023-02-28T02:36:35;48648.09;;;-146.00;74.75
21102;BME280;10709;49.006;12.100;2023-02-28T02:41:54;48640.25;;;-146.00;74.80
21102;BME280;10709;49.006;12.100;2023-02-28T02:44:40;48644.16;;;-146.00;74.47
21102;BME280;10709;49.006;12.100;2023-02-28T02:47:13;48644.16;;;-146.00;74.13
21102;BME280;10709;49.006;12.100;2023-02-28T02:49:45;48632.41;;;-146.00;74.38
21102;BME280;10709;49.006;12.100;2023-02-28T02:52:16;48652.00;;;-146.00;74.93
21102;BME280;10709;49.006;12.100;2023-02-28T02:54:46;48659.84;;;-146.00;75.17
21102;BME280;10709;49.006;12.100;2023-02-28T02:57:22;48659.84;;;-146.00;74.73
21102;BME280;10709;49.006;12.100;2023-02-28T02:59:53;48638.28;;;-146.00;74.89
21102;BME280;10709;49.006;12.100;2023-02-28T03:02:22;48634.38;;;-146.00;75.22
21102;BME280;10709;49.006;12.100;2023-02-28T03:04:54;48640.25;;;-146.00;74.36
21102;BME280;10709;49.006;12.100;2023-02-28T03:07:27;48620.66;;;-146.00;74.60
21102;BME280;10709;49.006;12.100;2023-02-28T03:09:56;48644.16;;;-146.00;73.95
21102;BME280;10709;49.006;12.100;2023-02-28T03:12:31;48655.94;;;-146.00;74.11
21102;BME280;10709;49.006;12.100;2023-02-28T03:15:08;48652.00;;;-146.00;73.48
21102;BME280;10709;49.006;12.100;2023-02-28T03:17:57;48644.16;;;-146.00;73.09
21102;BME280;10709;49.006;12.100;2023-02-28T03:20:36;48652.00;;;-146.00;72.68
21102;BME280;10709;49.006;12.100;2023-02-28T03:23:13;48655.94;;;-146.00;72.87
21102;BME280;10709;49.006;12.100;2023-02-28T03:31:11;48665.72;;;-146.00;72.39
21102;BME280;10709;49.006;12.100;2023-02-28T03:33:44;48646.13;;;-146.00;72.43
21102;BME280;10709;49.006;12.100;2023-02-28T03:36:16;48640.25;;;-146.00;72.30
21102;BME280;10709;49.006;12.100;2023-02-28T03:38:48;48659.84;;;-146.00;72.08
21102;BME280;10709;49.006;12.100;2023-02-28T03:41:21;48636.34;;;-146.00;72.10
21102;BME280;10709;49.006;12.100;2023-02-28T03:43:58;48652.00;;;-146.00;72.09
21102;BME280;10709;49.006;12.100;2023-02-28T03:46:28;48624.59;;;-146.00;72.85
21102;BME280;10709;49.006;12.100;2023-02-28T03:49:02;48640.25;;;-146.00;72.97
21102;BME280;10709;49.006;12.100;2023-02-28T03:51:31;48640.25;;;-146.00;72.72
21102;BME280;10709;49.006;12.100;2023-02-28T03:54:05;48644.16;;;-146.00;72.51
21102;BME280;10709;49.006;12.100;2023-02-28T03:56:48;48632.41;;;-146.00;72.67
21102;BME280;10709;49.006;12.100;2023-02-28T03:59:26;48675.50;;;-146.00;72.68
21102;BME280;10709;49.006;12.100;2023-02-28T04:01:54;48644.16;;;-146.00;72.70
21102;BME280;10709;49.006;12.100;2023-02-28T04:04:21;48634.38;;;-146.00;73.34
21102;BME280;10709;49.006;12.100;2023-02-28T04:06:50;48653.97;;;-146.00;73.32
21102;BME280;10709;49.006;12.100;2023-02-28T04:09:17;48640.25;;;-146.00;73.13
21102;BME280;10709;49.006;12.100;2023-02-28T04:11:51;48648.09;;;-146.00;72.70
21102;BME280;10709;49.006;12.100;2023-02-28T04:14:18;48632.41;;;-146.00;72.58
21102;BME280;10709;49.006;12.100;2023-02-28T04:16:45;48636.34;;;-146.00;72.65
21102;BME280;10709;49.006;12.100;2023-02-28T04:19:13;48648.09;;;-146.00;73.03
21102;BME280;10709;49.006;12.100;2023-02-28T04:21:49;48659.84;;;-146.00;72.98
21102;BME280;10709;49.006;12.100;2023-02-28T04:24:22;48659.84;;;-146.00;73.00
21102;BME280;10709;49.006;12.100;2023-02-28T04:26:51;48648.09;;;-146.00;73.12
21102;BME280;10709;49.006;12.100;2023-02-28T04:29:26;48636.34;;;-146.00;73.64
21102;BME280;10709;49.006;12.100;2023-02-28T04:31:54;48640.25;;;-146.00;73.38
21102;BME280;10709;49.006;12.100;2023-02-28T04:34:21;48659.84;;;-146.00;73.99
21102;BME280;10709;49.006;12.100;2023-02-28T04:36:48;48632.41;;;-146.00;73.99
21102;BME280;10709;49.006;12.100;2023-02-28T04:39:37;48655.94;;;-146.00;73.86
21102;BME280;10709;49.006;12.100;2023-02-28T04:42:04;48653.97;;;-146.00;73.64
21102;BME280;10709;49.006;12.100;2023-02-28T04:44:30;48648.09;;;-146.00;74.32
21102;BME280;10709;49.006;12.100;2023-02-28T04:46:57;48636.34;;;-146.00;74.51
21102;BME280;10709;49.006;12.100;2023-02-28T04:49:24;48648.09;;;-146.00;74.09
21102;BME280;10709;49.006;12.100;2023-02-28T04:51:50;48632.41;;;-146.00;73.94
21102;BME280;10709;49.006;12.100;2023-02-28T04:54:17;48630.47;;;-146.00;74.14
21102;BME280;10709;49.006;12.100;2023-02-28T04:56:44;48657.88;;;-146.00;74.04
21102;BME280;10709;49.006;12.100;2023-02-28T04:59:11;48632.41;;;-146.00;73.95
21102;BME280;10709;49.006;12.100;2023-02-28T05:01:37;48642.22;;;-146.00;74.25
21102;BME280;10709;49.006;12.100;2023-02-28T05:04:04;48652.00;;;-146.00;74.09
21102;BME280;10709;49.006;12.100;2023-02-28T05:06:32;48655.94;;;-146.00;74.24
21102;BME280;10709;49.006;12.100;2023-02-28T05:08:59;48648.09;;;-146.00;74.77
21102;BME280;10709;49.006;12.100;2023-02-28T05:11:31;48659.84;;;-146.00;74.30
21102;BME280;10709;49.006;12.100;2023-02-28T05:14:02;48644.16;;;-146.00;74.75
21102;BME280;10709;49.006;12.100;2023-02-28T05:16:30;48608.91;;;-146.00;74.19
21102;BME280;10709;49.006;12.100;2023-02-28T05:18:57;48648.09;;;-146.00;74.29
21102;BME280;10709;49.006;12.100;2023-02-28T05:21:34;48657.88;;;-146.00;74.12
21102;BME280;10709;49.006;12.100;2023-02-28T05:24:04;48640.25;;;-146.00;73.54
21102;BME280;10709;49.006;12.100;2023-02-28T05:26:34;48628.50;;;-146.00;73.79
21102;BME280;10709;49.006;12.100;2023-02-28T05:29:02;48640.25;;;-146.00;73.46
21102;BME280;10709;49.006;12.100;2023-02-28T05:31:28;48620.66;;;-146.00;72.95
21102;BME280;10709;49.006;12.100;2023-02-28T05:33:55;48642.22;;;-146.00;72.81
21102;BME280;10709;49.006;12.100;2023-02-28T05:36:22;48632.41;;;-146.00;72.37
21102;BME280;10709;49.006;12.100;2023-02-28T05:38:49;48636.34;;;-146.00;72.24
21102;BME280;10709;49.006;12.100;2023-02-28T05:41:17;48644.16;;;-146.00;71.77
21102;BME280;10709;49.006;12.100;2023-02-28T05:43:46;48634.38;;;-146.00;71.86
21102;BME280;10709;49.006;12.100;2023-02-28T05:46:13;48636.34;;;-146.00;71.69
21102;BME280;10709;49.006;12.100;2023-02-28T05:48:40;48618.72;;;-146.00;71.11
21102;BME280;10709;49.006;12.100;2023-02-28T05:51:08;48632.41;;;-146.00;70.50
21102;BME280;10709;49.006;12.100;2023-02-28T05:53:35;48652.00;;;-146.00;70.38
21102;BME280;10709;49.006;12.100;2023-02-28T05:56:03;48620.66;;;-146.00;70.78
21102;BME280;10709;49.006;12.100;2023-02-28T05:58:29;48636.34;;;-146.00;70.42
21102;BME280;10709;49.006;12.100;2023-02-28T06:01:18;48669.63;;;-146.00;70.28
21102;BME280;10709;49.006;12.100;2023-02-28T06:03:45;48628.50;;;-146.00;70.44
21102;BME280;10709;49.006;12.100;2023-02-28T06:06:12;48640.25;;;-146.00;70.28
21102;BME280;10709;49.006;12.100;2023-02-28T06:08:38;48626.53;;;-146.00;70.24
21102;BME280;10709;49.006;12.100;2023-02-28T06:11:05;48628.50;;;-146.00;69.68
21102;BME280;10709;49.006;12.100;2023-02-28T06:13:32;48612.84;;;-146.00;69.12
21102;BME280;10709;49.006;12.100;2023-02-28T06:16:02;48599.13;;;-146.00;69.23
21102;BME280;10709;49.006;12.100;2023-02-28T06:18:28;48638.28;;;-146.00;68.66
21102;BME280;10709;49.006;12.100;2023-02-28T06:20:55;48640.25;;;-146.00;68.66
21102;BME280;10709;49.006;12.100;2023-02-28T06:23:22;48632.41;;;-146.00;68.69
21102;BME280;10709;49.006;12.100;2023-02-28T06:25:48;48644.16;;;-146.00;68.35
21102;BME280;10709;49.006;12.100;2023-02-28T06:28:15;48642.22;;;-146.00;68.87
21102;BME280;10709;49.006;12.100;2023-02-28T06:30:42;48628.50;;;-146.00;68.12
21102;BME280;10709;49.006;12.100;2023-02-28T06:33:11;48634.38;;;-146.00;68.06
21102;BME280;10709;49.006;12.100;2023-02-28T06:35:38;48648.09;;;-146.00;68.35
21102;BME280;10709;49.006;12.100;2023-02-28T06:38:04;48644.16;;;-146.00;68.25
21102;BME280;10709;49.006;12.100;2023-02-28T06:40:31;48644.16;;;-146.00;67.65
21102;BME280;10709;49.006;12.100;2023-02-28T06:43:00;48652.00;;;-146.00;67.63
21102;BME280;10709;49.006;12.100;2023-02-28T06:45:26;48636.34;;;-146.00;67.25
21102;BME280;10709;49.006;12.100;2023-02-28T06:47:53;48624.59;;;-146.00;66.95
21102;BME280;10709;49.006;12.100;2023-02-28T06:50:19;48683.34;;;-146.00;67.30
21102;BME280;10709;49.006;12.100;2023-02-28T06:52:47;48638.28;;;-146.00;66.87
21102;BME280;10709;49.006;12.100;2023-02-28T06:55:13;48644.16;;;-146.00;66.55
21102;BME280;10709;49.006;12.100;2023-02-28T06:57:40;48648.09;;;-146.00;66.60
21102;BME280;10709;49.006;12.100;2023-02-28T07:00:08;48648.09;;;-146.00;66.58
21102;BME280;10709;49.006;12.100;2023-02-28T07:02:36;48628.50;;;-146.00;65.63
21102;BME280;10709;49.006;12.100;2023-02-28T07:05:03;48648.09;;;-146.00;65.66
21102;BME280;10709;49.006;12.100;2023-02-28T07:07:30;48648.09;;;-146.00;65.53
21102;BME280;10709;49.006;12.100;2023-02-28T07:09:56;48636.34;;;-146.00;65.50
21102;BME280;10709;49.006;12.100;2023-02-28T07:12:23;48640.25;;;-146.00;65.18
21102;BME280;10709;49.006;12.100;2023-02-28T07:14:49;48640.25;;;-146.00;65.17
21102;BME280;10709;49.006;12.100;2023-02-28T07:17:16;48650.06;;;-146.00;64.55
21102;BME280;10709;49.006;12.100;2023-02-28T07:19:42;48661.81;;;-146.00;64.27
21102;BME280;10709;49.006;12.100;2023-02-28T07:22:09;48616.75;;;-146.00;64.51
21102;BME280;10709;49.006;12.100;2023-02-28T07:24:35;48648.09;;;-146.00;63.93
21102;BME280;10709;49.006;12.100;2023-02-28T07:27:02;48640.25;;;-146.00;64.35
21102;BME280;10709;49.006;12.100;2023-02-28T07:29:29;48640.25;;;-146.00;64.06
21102;BME280;10709;49.006;12.100;2023-02-28T07:31:56;48640.25;;;-146.00;63.96
21102;BME280;10709;49.006;12.100;2023-02-28T07:34:22;48632.41;;;-146.00;63.91
21102;BME280;10709;49.006;12.100;2023-02-28T07:36:52;48644.16;;;-146.00;64.03
21102;BME280;10709;49.006;12.100;2023-02-28T07:39:20;48638.28;;;-146.00;64.31
21102;BME280;10709;49.006;12.100;2023-02-28T07:41:47;48640.25;;;-146.00;63.65
21102;BME280;10709;49.006;12.100;2023-02-28T07:44:14;48616.75;;;-146.00;63.89
21102;BME280;10709;49.006;12.100;2023-02-28T07:46:40;48636.34;;;-146.00;63.67
21102;BME280;10709;49.006;12.100;2023-02-28T07:49:07;48640.25;;;-146.00;64.01
21102;BME280;10709;49.006;12.100;2023-02-28T07:51:33;48620.66;;;-146.00;63.97
21102;BME280;10709;49.006;12.100;2023-02-28T07:54:00;48655.94;;;-146.00;63.91
21102;BME280;10709;49.006;12.100;2023-02-28T07:56:27;48628.50;;;-146.00;63.91
21102;BME280;10709;49.006;12.100;2023-02-28T07:58:54;48646.13;;;-146.00;64.36
21102;BME280;10709;49.006;12.100;2023-02-28T08:01:20;48655.94;;;-146.00;63.44
21102;BME280;10709;49.006;12.100;2023-02-28T08:03:48;48632.41;;;-146.00;64.30
21102;BME280;10709;49.006;12.100;2023-02-28T08:06:17;48652.00;;;-146.00;64.09
21102;BME280;10709;49.006;12.100;2023-02-28T08:08:44;48640.25;;;-146.00;64.08
21102;BME280;10709;49.006;12.100;2023-02-28T08:11:10;48632.41;;;-146.00;63.69
21102;BME280;10709;49.006;12.100;2023-02-28T08:13:37;48630.47;;;-146.00;63.98
21102;BME280;10709;49.006;12.100;2023-02-28T08:16:03;48652.00;;;-146.00;64.04
21102;BME280;10709;49.006;12.100;2023-02-28T08:18:30;48655.94;;;-146.00;63.59
21102;BME280;10709;49.006;12.100;2023-02-28T08:20:58;48636.34;;;-146.00;63.71
21102;BME280;10709;49.006;12.100;2023-02-28T08:23:25;48648.09;;;-146.00;63.71
21102;BME280;10709;49.006;12.100;2023-02-28T08:25:55;48655.94;;;-146.00;63.23
21102;BME280;10709;49.006;12.100;2023-02-28T08:28:22;48628.50;;;-146.00;63.22
21102;BME280;10709;49.006;12.100;2023-02-28T08:30:52;48636.34;;;-146.00;62.22
21102;BME280;10709;49.006;12.100;2023-02-28T08:33:19;48646.13;;;-146.00;62.09
21102;BME280;10709;49.006;12.100;2023-02-28T08:35:45;48636.34;;;-146.00;63.05
21102;BME280;10709;49.006;12.100;2023-02-28T08:38:11;48640.25;;;-146.00;62.58
21102;BME280;10709;49.006;12.100;2023-02-28T08:40:38;48632.41;;;-146.00;62.16
21102;BME280;10709;49.006;12.100;2023-02-28T08:43:04;48636.34;;;-146.00;62.25
21102;BME280;10709;49.006;12.100;2023-02-28T08:45:31;48632.41;;;-146.00;62.69
21102;BME280;10709;49.006;12.100;2023-02-28T08:47:57;48640.25;;;-146.00;62.36
21102;BME280;10709;49.006;12.100;2023-02-28T08:50:24;48628.50;;;-146.00;61.76
21102;BME280;10709;49.006;12.100;2023-02-28T08:52:50;48638.28;;;-146.00;61.85
21102;BME280;10709;49.006;12.100;2023-02-28T08:55:17;48653.97;;;-146.00;62.08
21102;BME280;10709;49.006;12.100;2023-02-28T08:57:43;48628.50;;;-146.00;62.00
21102;BME280;10709;49.006;12.100;2023-02-28T09:00:10;48644.16;;;-146.00;62.12
21102;BME280;10709;49.006;12.100;2023-02-28T09:02:40;48632.41;;;-146.00;61.88
21102;BME280;10709;49.006;12.100;2023-02-28T09:05:09;48636.34;;;-146.00;61.66
21102;BME280;10709;49.006;12.100;2023-02-28T09:07:35;48634.38;;;-146.00;61.68
21102;BME280;10709;49.006;12.100;2023-02-28T09:10:02;48634.38;;;-146.00;61.83
21102;BME280;10709;49.006;12.100;2023-02-28T09:12:33;48652.00;;;-146.00;61.37
21102;BME280;10709;49.006;12.100;2023-02-28T09:15:01;48652.00;;;-146.00;61.23
21102;BME280;10709;49.006;12.100;2023-02-28T09:17:28;48652.00;;;-146.00;61.06
21102;BME280;10709;49.006;12.100;2023-02-28T09:19:56;48636.34;;;-146.00;60.87
21102;BME280;10709;49.006;12.100;2023-02-28T09:22:23;48652.00;;;-146.00;60.39
21102;BME280;10709;49.006;12.100;2023-02-28T09:24:50;48644.16;;;-146.00;60.46
21102;BME280;10709;49.006;12.100;2023-02-28T09:27:16;48650.06;;;-146.00;60.02
21102;BME280;10709;49.006;12.100;2023-02-28T09:29:43;48636.34;;;-146.00;59.33
21102;BME280;10709;49.006;12.100;2023-02-28T09:32:09;48661.81;;;-146.00;59.49
21102;BME280;10709;49.006;12.100;2023-02-28T09:34:37;48655.94;;;-146.00;59.63
21102;BME280;10709;49.006;12.100;2023-02-28T09:37:03;48648.09;;;-146.00;59.04
21102;BME280;10709;49.006;12.100;2023-02-28T09:39:30;48632.41;;;-146.00;59.06
21102;BME280;10709;49.006;12.100;2023-02-28T09:41:57;48648.09;;;-146.00;59.28
21102;BME280;10709;49.006;12.100;2023-02-28T09:44:29;48655.94;;;-146.00;58.66
21102;BME280;10709;49.006;12.100;2023-02-28T09:47:04;48642.22;;;-146.00;58.82
21102;BME280;10709;49.006;12.100;2023-02-28T09:49:40;48636.34;;;-146.00;58.66
21102;BME280;10709;49.006;12.100;2023-02-28T09:52:12;48640.25;;;-146.00;58.36
21102;BME280;10709;49.006;12.100;2023-02-28T09:54:39;48632.41;;;-146.00;58.42
21102;BME280;10709;49.006;12.100;2023-02-28T10:00:14;48632.41;;;-146.00;58.21
21102;BME280;10709;49.006;12.100;2023-02-28T10:05:42;48652.00;;;-146.00;58.34
21102;BME280;10709;49.006;12.100;2023-02-28T10:08:16;48652.00;;;-146.00;58.66
21102;BME280;10709;49.006;12.100;2023-02-28T10:10:47;48636.34;;;-146.00;58.61
21102;BME280;10709;49.006;12.100;2023-02-28T10:15:54;48630.47;;;-146.00;58.33
21102;BME280;10709;49.006;12.100;2023-02-28T10:18:29;48648.09;;;-146.00;57.59
21102;BME280;10709;49.006;12.100;2023-02-28T10:20:57;48644.16;;;-146.00;57.31
21102;BME280;10709;49.006;12.100;2023-02-28T10:23:35;48642.22;;;-146.00;57.06
21102;BME280;10709;49.006;12.100;2023-02-28T10:26:12;48650.06;;;-146.00;57.91
21102;BME280;10709;49.006;12.100;2023-02-28T10:28:39;48628.50;;;-146.00;58.52
21102;BME280;10709;49.006;12.100;2023-02-28T10:31:11;48644.16;;;-146.00;57.81
21102;BME280;10709;49.006;12.100;2023-02-28T10:33:37;48616.75;;;-146.00;57.88
21102;BME280;10709;49.006;12.100;2023-02-28T10:36:04;48634.38;;;-146.00;57.65
21102;BME280;10709;49.006;12.100;2023-02-28T10:38:39;48648.09;;;-146.00;57.56
21102;BME280;10709;49.006;12.100;2023-02-28T10:41:08;48636.34;;;-146.00;57.70
21102;BME280;10709;49.006;12.100;2023-02-28T10:43:36;48628.50;;;-146.00;57.27
21102;BME280;10709;49.006;12.100;2023-02-28T10:48:43;48659.84;;;-146.00;57.25
21102;BME280;10709;49.006;12.100;2023-02-28T10:51:15;48638.28;;;-146.00;57.88
21102;BME280;10709;49.006;12.100;2023-02-28T10:56:26;48626.53;;;-146.00;57.19
21102;BME280;10709;49.006;12.100;2023-02-28T11:01:47;48638.28;;;-146.00;56.52
21102;BME280;10709;49.006;12.100;2023-02-28T11:07:05;48663.75;;;-146.00;56.08
21102;BME280;10709;49.006;12.100;2023-02-28T11:09:36;48644.16;;;-146.00;55.98
21102;BME280;10709;49.006;12.100;2023-02-28T11:12:07;48636.34;;;-146.00;55.83
21102;BME280;10709;49.006;12.100;2023-02-28T11:14:50;48652.00;;;-146.00;55.85
21102;BME280;10709;49.006;12.100;2023-02-28T11:17:24;48655.94;;;-146.00;56.56
21102;BME280;10709;49.006;12.100;2023-02-28T11:19:58;48665.72;;;-146.00;55.65
21102;BME280;10709;49.006;12.100;2023-02-28T11:22:27;48650.06;;;-146.00;56.14
21102;BME280;10709;49.006;12.100;2023-02-28T11:24:57;48636.34;;;-146.00;56.59
21102;BME280;10709;49.006;12.100;2023-02-28T11:27:26;48640.25;;;-146.00;56.58
21102;BME280;10709;49.006;12.100;2023-02-28T11:30:23;48644.16;;;-146.00;56.41
21102;BME280;10709;49.006;12.100;2023-02-28T11:32:49;48655.94;;;-146.00;56.17
21102;BME280;10709;49.006;12.100;2023-02-28T11:35:26;48644.16;;;-146.00;55.80
21102;BME280;10709;49.006;12.100;2023-02-28T11:37:53;48648.09;;;-146.00;55.57
21102;BME280;10709;49.006;12.100;2023-02-28T11:40:35;48646.13;;;-146.00;55.80
21102;BME280;10709;49.006;12.100;2023-02-28T11:48:27;48646.13;;;-146.00;56.77
21102;BME280;10709;49.006;12.100;2023-02-28T11:51:05;48640.25;;;-146.00;55.75
21102;BME280;10709;49.006;12.100;2023-02-28T11:56:43;48630.47;;;-146.00;56.42
21102;BME280;10709;49.006;12.100;2023-02-28T12:02:23;48648.09;;;-146.00;55.80
21102;BME280;10709;49.006;12.100;2023-02-28T12:07:50;48650.06;;;-146.00;55.59
21102;BME280;10709;49.006;12.100;2023-02-28T12:10:27;48648.09;;;-146.00;55.88
21102;BME280;10709;49.006;12.100;2023-02-28T12:19:34;48636.34;;;-146.00;55.37
21102;BME280;10709;49.006;12.100;2023-02-28T12:22:18;48638.28;;;-146.00;55.48
21102;BME280;10709;49.006;12.100;2023-02-28T12:27:37;48681.41;;;-146.00;54.76
21102;BME280;10709;49.006;12.100;2023-02-28T12:30:22;48663.75;;;-146.00;55.70
21102;BME280;10709;49.006;12.100;2023-02-28T12:32:55;48667.69;;;-146.00;55.56
21102;BME280;10709;49.006;12.100;2023-02-28T12:35:35;48671.59;;;-146.00;55.70
21102;BME280;10709;49.006;12.100;2023-02-28T12:38:22;48650.06;;;-146.00;55.29
21102;BME280;10709;49.006;12.100;2023-02-28T12:40:54;48657.88;;;-146.00;55.36
21102;BME280;10709;49.006;12.100;2023-02-28T12:43:27;48689.22;;;-146.00;55.39
21102;BME280;10709;49.006;12.100;2023-02-28T12:45:59;48655.94;;;-146.00;55.12
21102;BME280;10709;49.006;12.100;2023-02-28T12:48:36;48636.34;;;-146.00;55.10
21102;BME280;10709;49.006;12.100;2023-02-28T12:51:06;48652.00;;;-146.00;54.79
21102;BME280;10709;49.006;12.100;2023-02-28T12:59:39;48653.97;;;-146.00;54.88
21102;BME280;10709;49.006;12.100;2023-02-28T13:08:34;48636.34;;;-146.00;54.33
21102;BME280;10709;49.006;12.100;2023-02-28T13:11:07;48648.09;;;-146.00;55.12
21102;BME280;10709;49.006;12.100;2023-02-28T13:13:46;48665.72;;;-146.00;54.56
21102;BME280;10709;49.006;12.100;2023-02-28T13:16:13;48661.81;;;-146.00;54.10
21102;BME280;10709;49.006;12.100;2023-02-28T13:18:43;48652.00;;;-146.00;55.32
21102;BME280;10709;49.006;12.100;2023-02-28T13:21:28;48652.00;;;-146.00;54.11
21102;BME280;10709;49.006;12.100;2023-02-28T13:23:59;48679.44;;;-146.00;54.18
21102;BME280;10709;49.006;12.100;2023-02-28T13:50:36;48655.94;;;-146.00;54.95
21102;BME280;10709;49.006;12.100;2023-02-28T13:53:22;48653.97;;;-146.00;54.74
21102;BME280;10709;49.006;12.100;2023-02-28T13:56:09;48663.75;;;-146.00;54.16
21102;BME280;10709;49.006;12.100;2023-02-28T14:01:45;48636.34;;;-146.00;54.23
21102;BME280;10709;49.006;12.100;2023-02-28T14:04:48;48655.94;;;-146.00;54.16
21102;BME280;10709;49.006;12.100;2023-02-28T14:07:42;48648.09;;;-146.00;53.93
21102;BME280;10709;49.006;12.100;2023-02-28T14:10:22;48652.00;;;-146.00;54.31
21102;BME280;10709;49.006;12.100;2023-02-28T14:18:04;48632.41;;;-146.00;55.05
21102;BME280;10709;49.006;12.100;2023-02-28T14:20:33;48628.50;;;-146.00;54.67
21102;BME280;10709;49.006;12.100;2023-02-28T14:23:12;48663.75;;;-146.00;54.65
21102;BME280;10709;49.006;12.100;2023-02-28T14:31:15;48667.69;;;-146.00;54.40
21102;BME280;10709;49.006;12.100;2023-02-28T14:36:27;48675.50;;;-146.00;54.79
21102;BME280;10709;49.006;12.100;2023-02-28T14:39:01;48644.16;;;-146.00;54.94
21102;BME280;10709;49.006;12.100;2023-02-28T14:41:32;48665.72;;;-146.00;55.36
21102;BME280;10709;49.006;12.100;2023-02-28T14:44:12;48655.94;;;-146.00;55.25
21102;BME280;10709;49.006;12.100;2023-02-28T14:46:40;48648.09;;;-146.00;55.21
21102;BME280;10709;49.006;12.100;2023-02-28T14:49:20;48653.97;;;-146.00;55.27
21102;BME280;10709;49.006;12.100;2023-02-28T14:51:50;48663.75;;;-146.00;55.10
21102;BME280;10709;49.006;12.100;2023-02-28T14:54:28;48655.94;;;-146.00;55.21